Aérodrome :
LOGIN :

S'inscrire | Disclaimer

   EN    FR    IT 

 










Légende :    VFR   VFR Marginal   IFR   IFR Intensif   IFR Très Intensif
Visi : 
Plafond : 
>= 8 km
>= 3000ft
5 à 8 km
1000 à 3000 ft
1500m à 5 km
500 à 1000 ft
800 à 1500m
200 à 500 ft
< 800m
< 200 ft
Symboles :   Orages  Brouillard  Fortes neiges  Fortes précipitations  Vent > 20 kt
SIGMETs :   Divers  Orages  Givrage  Turbulence  Onde Orograph.  Cendres Volcan.







- Altitude de l'aérodrome : 18 ft


LIPC - Cervia AFB Ravenna

DERNIER METAR :
  • 182355Z 26010KT 9999 SCT040 04/03 Q1013

METARs EXPIRÉS :
  • 182255Z 27007KT CAVOK 03/01 Q1013
  • 182155Z 28007KT CAVOK 03/01 Q1013

TAF TAF LIPC
Valide du 19 à 00h jusqu'au 19 à 09h UTC


182300Z 1900/1909 29010KT 9999 SCT050
Pas de NOTAMs connus pour ce terrain.
4 SIGMETs publiés pour la FIR Milano (LIMM) :
 
Turbulence forte
LIMM SIGMET 5 VALID 182340/190340 LIIP
LIMM MILANO FIR SEV TURB FCST N OF LINE N4435 E00631 - N4640 E01427 ABV FL080 STNR NC=
Annulation du SIGMET 1 
LIMM SIGMET 2 VALID 182330/190340 LIIP
LIMM MILANO FIR CNL SIGMET 1 182340/190340=
SIGMET 1  ANNULÉ :
Turbulence forte
LIMM SIGMET 1 VALID 182340/190340 LIIP
LIMM MILANO FIR SEV TURB FCST N OF LINE N4435 E00631 - N4640 E01427 ABV FL080 STNR NC=
Annulation du SIGMET 1 
COR LIMM SIGMET 4 VALID 182330/190340 LIIP
LIMM MILANO FIR CNL SIGMET 1 182340/190340=



MET'MAP, la Météo Aéronautique d'un coup d'oeil ! - Copyright ORBIFLY Décembre 2007 - Disclaimer

ORBIFLY MET'MAP TEAM :

Programmation & Développement : Alexandra Zaïnal
Conception & Développement : Baudouin d'Aumeries
Co-Programmation & Développement : Marc-Olivier Méhu
Soutien technique & logistique : Manuel Goepfert

Contact : metmap@orbifly.com




SOURCES & CREDITS :

   NOAA